createdAt,value
2024-02-13T00:01:47.599Z,100304.81
2024-02-13T00:04:13.831Z,100301.53
2024-02-13T00:06:40.044Z,100319.69
2024-02-13T00:09:06.350Z,100326.69
2024-02-13T00:11:32.630Z,100319.09
2024-02-13T00:13:58.869Z,100320.06
2024-02-13T00:16:25.078Z,100324.44
2024-02-13T00:18:51.297Z,100327.06
2024-02-13T00:21:17.528Z,100331.44
2024-02-13T00:23:43.944Z,100331.53
2024-02-13T00:26:10.294Z,100336.78
2024-02-13T00:28:36.523Z,100341.19
2024-02-13T00:31:02.741Z,100342.00
2024-02-13T00:33:29.014Z,100349.66
2024-02-13T00:35:55.363Z,100347.00
2024-02-13T00:38:21.608Z,100341.72
2024-02-13T00:40:47.847Z,100338.03
2024-02-13T00:43:14.048Z,100344.13
2024-02-13T00:45:40.300Z,100344.19
2024-02-13T00:48:06.602Z,100343.38
2024-02-13T00:50:32.914Z,100345.16
2024-02-13T00:52:59.181Z,100348.66
2024-02-13T00:55:25.389Z,100348.72
2024-02-13T00:57:51.693Z,100349.69
2024-02-13T01:00:18.016Z,100360.06
2024-02-13T01:02:44.310Z,100354.13
2024-02-13T01:05:10.875Z,100360.19
2024-02-13T01:07:37.315Z,100364.50
2024-02-13T01:10:03.712Z,100369.63
2024-02-13T01:12:29.940Z,100372.28
2024-02-13T01:14:56.230Z,100377.50
2024-02-13T01:17:22.646Z,100372.41
2024-02-13T01:19:48.979Z,100376.78
2024-02-13T01:22:15.204Z,100387.19
2024-02-13T01:24:41.478Z,100389.75
2024-02-13T01:27:07.696Z,100396.69
2024-02-13T01:29:33.926Z,100393.34
2024-02-13T01:32:00.157Z,100385.59
2024-02-13T01:34:26.405Z,100393.34
2024-02-13T01:36:52.643Z,100401.06
2024-02-13T01:39:18.845Z,100390.88
2024-02-13T01:41:45.289Z,100396.94
2024-02-13T01:44:11.676Z,100401.25
2024-02-13T01:46:38.099Z,100402.13
2024-02-13T01:49:04.630Z,100398.69
2024-02-13T01:51:31.047Z,100401.28
2024-02-13T01:53:57.376Z,100401.25
2024-02-13T01:56:23.673Z,100402.13
2024-02-13T01:58:49.910Z,100400.41
2024-02-13T02:01:16.123Z,100405.50
2024-02-13T02:03:42.395Z,100403.81
2024-02-13T02:06:08.920Z,100409.75
2024-02-13T02:08:35.294Z,100406.34
2024-02-13T02:11:01.561Z,100405.53
2024-02-13T02:13:27.814Z,100402.16
2024-02-13T02:15:54.042Z,100401.38
2024-02-13T02:18:20.551Z,100386.13
2024-02-13T02:20:46.902Z,100408.34
2024-02-13T02:23:13.148Z,100408.44
2024-02-13T02:25:39.357Z,100417.91
2024-02-13T02:28:05.625Z,100421.34
2024-02-13T02:30:31.856Z,100423.94
2024-02-13T02:32:58.145Z,100423.13
2024-02-13T02:35:24.394Z,100423.16
2024-02-13T02:37:50.613Z,100422.34
2024-02-13T02:40:16.845Z,100418.91
2024-02-13T02:42:43.173Z,100425.78
2024-02-13T02:45:09.378Z,100427.47
2024-02-13T02:47:35.662Z,100427.47
2024-02-13T02:50:01.958Z,100434.31
2024-02-13T02:52:28.127Z,100443.72
2024-02-13T02:54:54.337Z,100430.88
2024-02-13T02:57:20.632Z,100433.47
2024-02-13T02:59:46.859Z,100437.75
2024-02-13T03:02:13.078Z,100437.78
2024-02-13T03:04:39.306Z,100443.84
2024-02-13T03:07:05.538Z,100441.28
2024-02-13T03:09:31.737Z,100442.22
2024-02-13T03:11:58.047Z,100449.09
2024-02-13T03:14:24.298Z,100444.84
2024-02-13T03:16:50.490Z,100450.00
2024-02-13T03:19:16.696Z,100449.94
2024-02-13T03:21:42.898Z,100449.91
2024-02-13T03:24:09.119Z,100460.97
2024-02-13T03:26:35.373Z,100463.53
2024-02-13T03:29:01.614Z,100470.38
2024-02-13T03:31:27.818Z,100464.44
2024-02-13T03:33:54.258Z,100470.44
2024-02-13T03:36:20.595Z,100471.31
2024-02-13T03:38:46.842Z,100477.31
2024-02-13T03:41:13.076Z,100470.41
2024-02-13T03:43:39.305Z,100467.81
2024-02-13T03:46:05.525Z,100479.78
2024-02-13T03:48:31.942Z,100480.63
2024-02-13T03:50:58.341Z,100484.88
2024-02-13T03:53:24.565Z,100479.78
2024-02-13T03:55:50.792Z,100477.16
2024-02-13T03:58:16.969Z,100482.22
2024-02-13T04:00:43.166Z,100478.81
2024-02-13T04:03:09.406Z,100481.38
2024-02-13T04:05:35.668Z,100484.75
2024-02-13T04:08:01.915Z,100485.59
2024-02-13T04:10:28.150Z,100495.84
2024-02-13T04:12:54.360Z,100491.50
2024-02-13T04:15:20.570Z,100488.00
2024-02-13T04:17:46.835Z,100489.59
2024-02-13T04:20:13.246Z,100484.38
2024-02-13T04:22:39.531Z,100488.59
2024-02-13T04:25:05.762Z,100476.44
2024-02-13T04:27:32.014Z,100486.59
2024-02-13T04:29:58.294Z,100484.06
2024-02-13T04:32:24.658Z,100483.25
2024-02-13T04:34:51.040Z,100493.63
2024-02-13T04:37:17.339Z,100497.19
2024-02-13T04:39:43.560Z,100505.84
2024-02-13T04:42:09.801Z,100504.19
2024-02-13T04:44:36.087Z,100500.00
2024-02-13T04:47:02.319Z,100505.19
2024-02-13T04:49:28.587Z,100505.28
2024-02-13T04:51:54.891Z,100509.63
2024-02-13T04:54:21.117Z,100506.22
2024-02-13T04:56:47.390Z,100512.25
2024-02-13T04:59:13.635Z,100520.81
2024-02-13T05:01:39.877Z,100514.81
2024-02-13T05:04:06.170Z,100518.22
2024-02-13T05:06:32.425Z,100525.09
2024-02-13T05:08:58.659Z,100524.25
2024-02-13T05:11:24.968Z,100525.97
2024-02-13T05:13:51.198Z,100525.16
2024-02-13T05:16:17.408Z,100526.00
2024-02-13T05:18:43.725Z,100531.22
2024-02-13T05:21:10.047Z,100531.25
2024-02-13T05:23:36.317Z,100533.81
2024-02-13T05:26:02.591Z,100535.50
2024-02-13T05:28:28.804Z,100531.25
2024-02-13T05:30:55.063Z,100540.69
2024-02-13T05:33:21.534Z,100540.72
2024-02-13T05:35:48.047Z,100551.91
2024-02-13T05:38:14.350Z,100551.06
2024-02-13T05:40:40.557Z,100551.09
2024-02-13T05:43:06.751Z,100564.81
2024-02-13T05:45:32.949Z,100564.00
2024-02-13T05:47:59.209Z,100565.72
2024-02-13T05:50:25.505Z,100563.16
2024-02-13T05:52:51.753Z,100569.19
2024-02-13T05:55:17.960Z,100570.91
2024-02-13T05:57:44.156Z,100575.19
2024-02-13T06:00:11.253Z,100574.31
2024-02-13T06:02:37.757Z,100576.00
2024-02-13T06:05:03.948Z,100583.66
2024-02-13T06:07:30.116Z,100587.94
2024-02-13T06:09:56.352Z,100580.16
2024-02-13T06:12:22.565Z,100587.84
2024-02-13T06:14:48.873Z,100592.06
2024-02-13T06:17:15.217Z,100591.16
2024-02-13T06:19:41.555Z,100597.16
2024-02-13T06:22:07.837Z,100597.16
2024-02-13T06:24:34.013Z,100593.72
2024-02-13T06:27:00.264Z,100608.28
2024-02-13T06:29:26.572Z,100615.06
2024-02-13T06:31:52.813Z,100616.81
2024-02-13T06:34:19.142Z,100621.09
2024-02-13T06:36:45.405Z,100623.66
2024-02-13T06:39:11.590Z,100627.09
2024-02-13T06:41:37.963Z,100634.81
2024-02-13T06:44:04.204Z,100636.53
2024-02-13T06:46:30.401Z,100632.25
2024-02-13T06:48:56.763Z,100638.22
2024-02-13T06:51:23.051Z,100641.59
2024-02-13T06:53:49.263Z,100641.59
2024-02-13T06:56:15.708Z,100644.94
2024-02-13T06:58:42.008Z,100647.44
2024-02-13T07:01:08.247Z,100630.28
2024-02-13T07:03:34.505Z,100641.38
2024-02-13T07:06:01.008Z,100651.69
2024-02-13T07:08:30.345Z,100648.31
2024-02-13T07:10:56.666Z,100650.03
2024-02-13T07:13:22.870Z,100643.22
2024-02-13T07:15:49.172Z,100650.06
2024-02-13T07:18:15.534Z,100656.91
2024-02-13T07:20:41.778Z,100662.94
2024-02-13T07:23:08.066Z,100664.66
2024-02-13T07:25:34.310Z,100674.06
2024-02-13T07:28:00.574Z,100674.88
2024-02-13T07:30:26.808Z,100668.00
2024-02-13T07:32:53.314Z,100679.09
2024-02-13T07:35:19.697Z,100682.47
2024-02-13T07:37:45.934Z,100678.94
2024-02-13T07:40:12.126Z,100684.91
2024-02-13T07:42:38.347Z,100687.44
2024-02-13T07:45:04.565Z,100685.66
2024-02-13T07:47:30.820Z,100693.34
2024-02-13T07:49:57.144Z,100688.13
2024-02-13T07:52:23.455Z,100676.91
2024-02-13T07:54:49.837Z,100681.09
2024-02-13T07:57:16.064Z,100677.59
2024-02-13T07:59:42.406Z,100681.72
2024-02-13T08:02:08.787Z,100682.50
2024-02-13T08:04:35.155Z,100684.84
2024-02-13T08:07:01.846Z,100669.22
2024-02-13T08:09:29.292Z,100670.59
2024-02-13T08:11:55.546Z,100668.66
2024-02-13T08:14:21.810Z,100667.47
2024-02-13T08:16:48.036Z,100661.16
2024-02-13T08:19:14.254Z,100659.19
2024-02-13T08:21:40.478Z,100653.81
2024-02-13T08:24:06.688Z,100649.31
2024-02-13T08:26:32.953Z,100642.88
2024-02-13T08:29:01.740Z,100647.44
2024-02-13T08:31:27.917Z,100638.97
2024-02-13T08:33:54.237Z,100623.09
2024-02-13T08:36:20.544Z,100620.31
2024-02-13T08:38:46.835Z,100621.03
2024-02-13T08:41:13.143Z,100615.84
2024-02-13T08:43:39.495Z,100613.81
2024-02-13T08:46:05.771Z,100626.47
2024-02-13T08:48:32.258Z,100715.44
2024-02-13T08:50:58.832Z,100793.19
2024-02-13T08:53:25.459Z,100878.00
2024-02-13T08:55:51.722Z,101011.56
2024-02-13T08:58:17.976Z,101081.41
2024-02-13T09:00:44.316Z,101103.88
2024-02-13T09:03:10.569Z,101116.78
2024-02-13T09:05:36.837Z,101108.31
2024-02-13T09:08:03.113Z,101104.09
2024-02-13T09:10:29.311Z,101117.63
2024-02-13T09:12:55.653Z,101121.69
2024-02-13T09:15:21.950Z,101116.56
2024-02-13T09:17:48.367Z,101122.13
2024-02-13T09:20:14.678Z,101120.09
2024-02-13T09:22:40.899Z,101101.75
2024-02-13T09:25:07.140Z,101114.28
2024-02-13T09:27:33.362Z,101108.63
2024-02-13T09:29:59.651Z,101098.91
2024-02-13T09:32:26.027Z,101105.56
2024-02-13T09:34:52.290Z,101101.63
2024-02-13T09:37:18.635Z,101099.16
2024-02-13T09:39:44.836Z,101091.00
2024-02-13T09:42:11.085Z,101097.31
2024-02-13T09:44:37.324Z,101100.31
2024-02-13T09:47:03.555Z,101111.16
2024-02-13T09:49:29.875Z,101101.34
2024-02-13T09:51:56.196Z,101116.72
2024-02-13T09:54:22.409Z,101121.03
2024-02-13T09:56:48.714Z,101122.38
2024-02-13T09:59:14.968Z,101118.81
2024-02-13T10:01:41.226Z,101106.53
2024-02-13T10:04:07.468Z,101102.38
2024-02-13T10:06:33.810Z,101103.00
2024-02-13T10:09:00.388Z,101115.25
2024-02-13T10:11:26.788Z,101117.94
2024-02-13T10:13:53.244Z,101112.28
2024-02-13T10:16:19.473Z,101108.00
2024-02-13T10:18:46.047Z,101115.09
2024-02-13T10:21:12.536Z,101104.06
2024-02-13T10:23:38.812Z,101097.25
2024-02-13T10:26:05.097Z,101091.53
2024-02-13T10:28:31.329Z,101091.16
2024-02-13T10:30:57.609Z,101079.78
2024-02-13T10:33:23.979Z,101083.47
2024-02-13T10:35:50.263Z,101089.78
2024-02-13T10:38:16.604Z,101087.00
2024-02-13T10:40:42.882Z,101105.25
2024-02-13T10:43:09.099Z,101122.19
2024-02-13T10:45:35.344Z,101125.84
2024-02-13T10:48:01.699Z,101137.34
2024-02-13T10:50:28.008Z,101137.75
2024-02-13T10:52:54.210Z,101119.19
2024-02-13T10:55:20.460Z,101120.88
2024-02-13T10:57:46.768Z,101123.94
2024-02-13T11:00:13.021Z,101112.28
2024-02-13T11:02:39.394Z,101099.59
2024-02-13T11:05:05.761Z,101082.44
2024-02-13T11:07:32.025Z,101081.75
2024-02-13T11:09:58.263Z,101072.28
2024-02-13T11:12:24.485Z,101083.88
2024-02-13T11:14:50.802Z,101065.38
2024-02-13T11:17:17.360Z,101077.06
2024-02-13T11:19:46.237Z,101055.44
2024-02-13T11:22:13.162Z,101054.31
2024-02-13T11:24:39.394Z,101043.34
2024-02-13T11:27:19.539Z,101051.38
2024-02-13T11:29:50.598Z,101048.25
2024-02-13T11:32:16.817Z,101040.16
2024-02-13T11:34:43.814Z,101062.84
2024-02-13T11:37:10.390Z,101069.91
2024-02-13T11:39:36.654Z,101082.13
2024-02-13T11:42:02.987Z,101084.56
2024-02-13T11:44:29.321Z,101081.94
2024-02-13T11:46:55.732Z,101084.06
2024-02-13T11:49:22.436Z,101085.94
2024-02-13T11:51:48.923Z,101090.25
2024-02-13T11:54:15.183Z,101095.09
2024-02-13T11:56:41.487Z,101091.50
2024-02-13T11:59:07.748Z,101093.31
2024-02-13T12:01:33.969Z,101080.19
2024-02-13T12:04:00.263Z,101085.97
2024-02-13T12:06:26.583Z,101089.81
2024-02-13T12:08:52.914Z,101081.56
2024-02-13T12:11:19.181Z,101078.88
2024-02-13T12:13:45.391Z,101083.06
2024-02-13T12:16:11.624Z,101086.41
2024-02-13T12:18:38.024Z,101076.28
2024-02-13T12:21:04.370Z,101087.91
2024-02-13T12:23:30.699Z,101076.34
2024-02-13T12:25:56.988Z,101083.94
2024-02-13T12:28:23.234Z,101080.47
2024-02-13T12:30:49.482Z,101085.13
2024-02-13T12:33:15.860Z,101082.56
2024-02-13T12:35:42.149Z,101090.22
2024-02-13T12:38:08.393Z,101074.34
2024-02-13T12:40:34.635Z,101075.75
2024-02-13T12:43:00.816Z,101079.22
2024-02-13T12:45:27.097Z,101074.38
2024-02-13T12:47:53.437Z,101085.50
2024-02-13T12:50:19.881Z,101088.06
2024-02-13T12:52:46.234Z,101076.19
2024-02-13T12:55:12.462Z,101073.44
2024-02-13T12:57:38.747Z,101082.44
2024-02-13T13:00:05.052Z,101079.34
2024-02-13T13:02:31.315Z,101077.38
2024-02-13T13:04:57.539Z,101072.69
2024-02-13T13:07:23.713Z,101064.81
2024-02-13T13:09:50.023Z,101067.56
2024-02-13T13:12:16.278Z,101062.88
2024-02-13T13:14:42.508Z,101065.88
2024-02-13T13:17:08.857Z,101062.06
2024-02-13T13:19:35.407Z,101054.97
2024-02-13T13:22:01.854Z,101051.34
2024-02-13T13:24:28.056Z,101044.28
2024-02-13T13:26:54.382Z,101052.94
2024-02-13T13:29:21.096Z,101042.97
2024-02-13T13:31:47.568Z,101040.38
2024-02-13T13:34:14.030Z,101042.16
2024-02-13T13:36:40.321Z,101036.19
2024-02-13T13:39:06.554Z,101030.50
2024-02-13T13:41:34.332Z,101025.63
2024-02-13T13:44:00.547Z,101015.28
2024-02-13T13:46:26.782Z,101023.72
2024-02-13T13:48:53.178Z,101018.09
2024-02-13T13:51:19.574Z,101026.81
2024-02-13T13:53:45.912Z,101028.00
2024-02-13T13:56:12.249Z,101020.34
2024-02-13T13:58:38.466Z,101026.28
2024-02-13T14:01:04.727Z,101029.19
2024-02-13T14:03:31.014Z,101018.75
2024-02-13T14:05:57.417Z,101022.47
2024-02-13T14:08:23.746Z,101015.56
2024-02-13T14:10:50.136Z,101027.19
2024-02-13T14:13:16.512Z,101031.81
2024-02-13T14:15:42.691Z,101029.22
2024-02-13T14:18:08.996Z,101025.59
2024-02-13T14:20:35.374Z,101030.69
2024-02-13T14:23:01.651Z,101030.28
2024-02-13T14:25:27.966Z,101029.13
2024-02-13T14:27:54.222Z,101022.63
2024-02-13T14:30:20.560Z,101018.25
2024-02-13T14:32:46.865Z,101028.59
2024-02-13T14:35:13.246Z,101025.50
2024-02-13T14:37:39.515Z,101033.22
2024-02-13T14:40:05.735Z,101022.03
2024-02-13T14:42:32.036Z,101025.72
2024-02-13T14:44:58.291Z,101029.34
2024-02-13T14:47:24.645Z,101029.84
2024-02-13T14:49:51.037Z,101030.97
2024-02-13T14:52:17.354Z,101039.69
2024-02-13T14:54:47.326Z,101044.75
2024-02-13T14:57:14.856Z,101042.25
2024-02-13T14:59:41.147Z,101042.88
2024-02-13T15:02:07.402Z,101042.00
2024-02-13T15:04:33.633Z,101050.97
2024-02-13T15:06:59.892Z,101051.03
2024-02-13T15:09:26.136Z,101044.69
2024-02-13T15:11:52.355Z,101051.53
2024-02-13T15:14:18.973Z,101049.97
2024-02-13T15:16:45.353Z,101046.69
2024-02-13T15:19:11.753Z,101047.00
2024-02-13T15:21:38.082Z,101043.34
2024-02-13T15:24:04.340Z,101056.22
2024-02-13T15:26:30.663Z,101058.00
2024-02-13T15:28:56.892Z,101052.91
2024-02-13T15:31:23.145Z,101051.28
2024-02-13T15:33:49.619Z,101059.34
2024-02-13T15:36:15.961Z,101056.19
2024-02-13T15:38:42.215Z,101062.38
2024-02-13T15:41:08.418Z,101071.16
2024-02-13T15:43:34.647Z,101071.34
2024-02-13T15:46:00.867Z,101068.84
2024-02-13T15:48:27.490Z,101069.22
2024-02-13T15:50:53.852Z,101069.63
2024-02-13T15:53:20.198Z,101069.78
2024-02-13T15:55:46.477Z,101071.66
2024-02-13T15:58:12.721Z,101072.69
2024-02-13T16:00:38.873Z,101074.69
2024-02-13T16:03:05.176Z,101079.28
2024-02-13T16:05:31.551Z,101070.72
2024-02-13T16:07:57.974Z,101079.63
2024-02-13T16:10:24.230Z,101078.13
2024-02-13T16:12:50.486Z,101078.25
2024-02-13T16:15:16.742Z,101079.25
2024-02-13T16:17:43.052Z,101080.28
2024-02-13T16:20:09.491Z,101081.31
2024-02-13T16:22:35.731Z,101079.56
2024-02-13T16:25:01.972Z,101088.63
2024-02-13T16:27:28.171Z,101098.44
2024-02-13T16:29:54.476Z,101090.91
2024-02-13T16:32:28.829Z,101095.44
2024-02-13T16:35:02.464Z,101105.22
2024-02-13T16:37:28.814Z,101109.88
2024-02-13T16:39:55.065Z,101110.03
2024-02-13T16:42:21.230Z,101106.78
2024-02-13T16:44:47.461Z,101101.78
2024-02-13T16:47:13.778Z,101105.44
2024-02-13T16:49:40.058Z,101110.00
2024-02-13T16:52:06.288Z,101124.13
2024-02-13T16:54:32.526Z,101114.63
2024-02-13T16:56:58.766Z,101120.81
2024-02-13T16:59:25.015Z,101124.47
2024-02-13T17:01:51.232Z,101123.94
2024-02-13T17:04:17.470Z,101124.19
2024-02-13T17:06:43.937Z,101125.34
2024-02-13T17:09:10.404Z,101126.38
2024-02-13T17:11:37.086Z,101124.97
2024-02-13T17:14:03.472Z,101131.25
2024-02-13T17:16:29.725Z,101131.50
2024-02-13T17:18:56.232Z,101134.34
2024-02-13T17:21:22.704Z,101138.06
2024-02-13T17:23:49.115Z,101142.66
2024-02-13T17:26:15.355Z,101144.59
2024-02-13T17:28:41.564Z,101140.34
2024-02-13T17:31:07.824Z,101147.59
2024-02-13T17:33:34.219Z,101150.38
2024-02-13T17:36:00.643Z,101150.66
2024-02-13T17:38:26.935Z,101147.47
2024-02-13T17:40:53.214Z,101147.88
2024-02-13T17:43:19.408Z,101157.66
2024-02-13T17:45:45.863Z,101147.63
2024-02-13T17:48:12.224Z,101152.16
2024-02-13T17:50:38.559Z,101154.91
2024-02-13T17:53:04.790Z,101155.13
2024-02-13T17:55:30.996Z,101162.22
2024-02-13T17:57:57.206Z,101161.56
2024-02-13T18:00:23.477Z,101154.78
2024-02-13T18:02:49.818Z,101156.66
2024-02-13T18:05:16.193Z,101161.94
2024-02-13T18:07:42.439Z,101158.56
2024-02-13T18:10:08.688Z,101158.50
2024-02-13T18:12:34.917Z,101153.44
2024-02-13T18:15:01.263Z,101149.94
2024-02-13T18:17:27.776Z,101148.22
2024-02-13T18:19:54.069Z,101143.06
2024-02-13T18:22:20.446Z,101133.66
2024-02-13T18:24:46.734Z,101139.81
2024-02-13T18:27:12.942Z,101136.47
2024-02-13T18:29:39.185Z,101140.88
2024-02-13T18:32:05.414Z,101136.69
2024-02-13T18:34:31.732Z,101136.84
2024-02-13T18:36:58.015Z,101131.78
2024-02-13T18:39:24.185Z,101137.91
2024-02-13T18:41:55.352Z,101137.97
2024-02-13T18:44:23.200Z,101127.69
2024-02-13T18:46:49.569Z,101125.19
2024-02-13T18:49:15.891Z,101134.75
2024-02-13T18:51:42.206Z,101136.50
2024-02-13T18:54:08.422Z,101134.06
2024-02-13T18:56:34.672Z,101135.91
2024-02-13T18:59:04.169Z,101141.22
2024-02-13T19:01:30.361Z,101139.63
2024-02-13T19:03:56.586Z,101140.59
2024-02-13T19:06:22.932Z,101138.13
2024-02-13T19:08:49.210Z,101138.25
2024-02-13T19:11:15.418Z,101134.88
2024-02-13T19:13:41.687Z,101128.03
2024-02-13T19:16:07.931Z,101126.38
2024-02-13T19:18:34.347Z,101133.28
2024-02-13T19:21:00.755Z,101122.13
2024-02-13T19:23:30.260Z,101121.22
2024-02-13T19:25:56.635Z,101117.78
2024-02-13T19:28:24.016Z,101122.94
2024-02-13T19:30:50.897Z,101124.72
2024-02-13T19:33:17.266Z,101117.97
2024-02-13T19:35:43.694Z,101116.22
2024-02-13T19:38:09.934Z,101123.09
2024-02-13T19:40:36.155Z,101124.81
2024-02-13T19:43:02.435Z,101122.25
2024-02-13T19:45:28.646Z,101121.34
2024-02-13T19:47:54.969Z,101112.78
2024-02-13T19:50:21.336Z,101117.94
2024-02-13T19:52:47.590Z,101121.44
2024-02-13T19:55:13.880Z,101130.09
2024-02-13T19:57:40.142Z,101130.16
2024-02-13T20:00:06.384Z,101135.41
2024-02-13T20:02:32.708Z,101126.81
2024-02-13T20:04:59.046Z,101129.50
2024-02-13T20:07:25.324Z,101134.72
2024-02-13T20:09:51.558Z,101133.00
2024-02-13T20:12:17.907Z,101132.16
2024-02-13T20:14:44.228Z,101140.78
2024-02-13T20:17:10.516Z,101138.19
2024-02-13T20:19:37.031Z,101134.72
2024-02-13T20:22:03.388Z,101125.25
2024-02-13T20:24:33.201Z,101129.50
2024-02-13T20:26:59.896Z,101131.16
2024-02-13T20:29:26.323Z,101123.44
2024-02-13T20:31:52.637Z,101126.00
2024-02-13T20:34:19.102Z,101129.41
2024-02-13T20:36:45.381Z,101132.81
2024-02-13T20:39:11.795Z,101134.50
2024-02-13T20:41:38.118Z,101136.22
2024-02-13T20:44:04.355Z,101146.50
2024-02-13T20:46:30.591Z,101138.72
2024-02-13T20:48:56.902Z,101142.16
2024-02-13T20:51:23.162Z,101136.06
2024-02-13T20:53:49.457Z,101137.81
2024-02-13T20:56:15.723Z,101138.69
2024-02-13T20:58:41.920Z,101140.44
2024-02-13T21:01:08.208Z,101145.69
2024-02-13T21:03:34.498Z,101144.03
2024-02-13T21:06:00.861Z,101141.50
2024-02-13T21:08:27.232Z,101144.97
2024-02-13T21:10:53.491Z,101151.03
2024-02-13T21:13:19.681Z,101142.47
2024-02-13T21:15:45.922Z,101145.06
2024-02-13T21:18:12.531Z,101141.66
2024-02-13T21:20:38.834Z,101143.41
2024-02-13T21:23:07.938Z,101142.59
2024-02-13T21:25:35.777Z,101148.66
2024-02-13T21:28:02.032Z,101147.81
2024-02-13T21:30:30.865Z,101140.94
2024-02-13T21:32:58.672Z,101145.25
2024-02-13T21:35:24.951Z,101134.06
2024-02-13T21:37:51.202Z,101127.16
2024-02-13T21:40:17.444Z,101140.88
2024-02-13T21:42:43.680Z,101137.44
2024-02-13T21:45:10.098Z,101140.84
2024-02-13T21:47:36.454Z,101140.84
2024-02-13T21:50:02.933Z,101143.41
2024-02-13T21:52:29.183Z,101135.69
2024-02-13T21:54:55.410Z,101135.63
2024-02-13T21:57:21.682Z,101140.69
2024-02-13T21:59:47.988Z,101128.59
2024-02-13T22:02:14.204Z,101132.00
2024-02-13T22:04:40.415Z,101134.53
2024-02-13T22:07:06.721Z,101136.22
2024-02-13T22:09:33.020Z,101137.88
2024-02-13T22:11:59.367Z,101137.88
2024-02-13T22:14:25.743Z,101131.00
2024-02-13T22:16:52.087Z,101127.47
2024-02-13T22:19:18.451Z,101127.25
2024-02-13T22:21:44.843Z,101134.88
2024-02-13T22:24:11.142Z,101138.31
2024-02-13T22:26:37.393Z,101134.94
2024-02-13T22:29:03.591Z,101131.63
2024-02-13T22:31:29.846Z,101137.56
2024-02-13T22:33:56.215Z,101132.41
2024-02-13T22:36:22.515Z,101138.47
2024-02-13T22:38:48.823Z,101136.66
2024-02-13T22:41:15.101Z,101139.38
2024-02-13T22:43:41.290Z,101139.44
2024-02-13T22:46:07.547Z,101141.22
2024-02-13T22:48:34.036Z,101142.13
2024-02-13T22:51:00.306Z,101141.06
2024-02-13T22:53:26.601Z,101148.78
2024-02-13T22:55:52.822Z,101151.38
2024-02-13T22:58:19.091Z,101148.97
2024-02-13T23:00:45.333Z,101142.22
2024-02-13T23:03:11.752Z,101141.47
2024-02-13T23:05:38.106Z,101136.38
2024-02-13T23:08:04.369Z,101140.72
2024-02-13T23:10:30.596Z,101141.59
2024-02-13T23:12:56.840Z,101137.38
2024-02-13T23:15:26.188Z,101145.16
2024-02-13T23:17:52.958Z,101145.13
2024-02-13T23:20:19.234Z,101155.41
2024-02-13T23:22:45.422Z,101163.16
2024-02-13T23:25:11.616Z,101161.44
2024-02-13T23:27:37.857Z,101155.41
2024-02-13T23:30:04.081Z,101158.06
2024-02-13T23:32:30.453Z,101156.31
2024-02-13T23:34:56.909Z,101155.50
2024-02-13T23:37:23.183Z,101148.69
2024-02-13T23:39:49.372Z,101152.22
2024-02-13T23:42:15.889Z,101156.50
2024-02-13T23:44:42.137Z,101156.53
2024-02-13T23:47:08.364Z,101148.78
2024-02-13T23:49:34.625Z,101156.53
2024-02-13T23:52:00.849Z,101154.06
2024-02-13T23:54:27.122Z,101151.53
2024-02-13T23:56:53.414Z,101146.34
2024-02-13T23:59:19.684Z,101146.38
